Corona Royal — 3FFM6 — position and weather

sailwx.info

Track history (hours):
 
Tides and Currents Weather Stations Pressure Air Temp Water Temp Dewpoint Dewpoint Depression Visibility Wind Speed Wind Dir Waves Ship Positions

Corona Royal

Last reported at 2017-Dec-10 18:14 UTC. Time now 2017-Dec-12 16:15 UTC.
Position S 27°34' E 153°49'.

Length 230 m; draft 12.8 m.

Type: Cargo ship. MMSI: 357338000.

Date/timePositionNaut miles runAvg speedWind from/ knotsBaromVisibWave heightAir tempDewpointWater temp
2017-Dec-10 18:14S 27°34' E 153°49'311.3
2017-Dec-10 17:59S 27°37' E 153°49'511.3
2017-Dec-10 17:30S 27°42' E 153°49'611.2
2017-Dec-10 17:00S 27°48' E 153°49'611.1
2017-Dec-10 16:30S 27°53' E 153°49'711.0
2017-Dec-10 15:53S 28°00' E 153°49'24611.2
2017-Dec-09 18:02S 32°01' E 152°53'2712.3
2017-Dec-09 15:50S 32°26' E 152°40'411.4
2017-Dec-09 15:27S 32°30' E 152°38'511.1
2017-Dec-09 15:00S 32°33' E 152°34'610.9
2017-Dec-09 14:30S 32°37' E 152°30'611.5
2017-Dec-09 14:00S 32°41' E 152°25'612.4
2017-Dec-09 13:30S 32°46' E 152°20'612.4
2017-Dec-09 12:59S 32°50' E 152°14'612.4
2017-Dec-09 12:30S 32°53' E 152°08'612.4
2017-Dec-09 12:00S 32°56' E 152°01'611.1
2017-Dec-09 11:30S 32°56' E 151°55'5 9.0
2017-Dec-09 11:00S 32°56' E 151°49'2 4.8
2017-Dec-09 10:30S 32°55' E 151°47'2 4.1
2017-Dec-09 10:00S 32°53' E 151°46'1 0.0
2017-Dec-08 19:39S 32°53' E 151°45'0 0.0
2017-Dec-08 19:27S 32°53' E 151°45'0 0.0
2017-Dec-08 19:00S 32°53' E 151°45'0 0.0
2017-Dec-08 13:48S 32°53' E 151°45'0 0.0
2017-Dec-08 12:33S 32°53' E 151°45'0 0.0
2017-Dec-08 12:27S 32°53' E 151°45'0 0.0
2017-Dec-08 07:12S 32°53' E 151°45'0 0.0
2017-Dec-08 04:24S 32°53' E 151°45'0 0.0
2017-Dec-08 03:24S 32°53' E 151°45'0 0.0
2017-Dec-08 02:09S 32°53' E 151°45'0 0.0
2017-Dec-08 01:42S 32°53' E 151°45'0 0.0
2017-Dec-08 01:24S 32°53' E 151°45'0 0.0
2017-Dec-08 01:00S 32°53' E 151°45'1 2.2
2017-Dec-08 00:30S 32°53' E 151°46'2 4.1
2017-Dec-08 00:00S 32°55' E 151°47'4 8.3
2017-Dec-07 23:30S 32°57' E 151°52'3 5.6
2017-Dec-07 23:01S 32°60' E 151°51'4 7.6
2017-Dec-07 22:30S 33°02' E 151°47'0 0.5
2017-Dec-07 21:56S 33°02' E 151°47'0 0.0
2017-Dec-07 21:29S 33°02' E 151°47'0 0.0
2017-Dec-07 20:59S 33°02' E 151°47'0 0.0
2017-Dec-07 20:29S 33°02' E 151°47'0 0.0
2017-Dec-07 19:56S 33°02' E 151°47'0 0.0
2017-Dec-07 19:23S 33°02' E 151°47'0 0.1
2017-Dec-07 18:59S 33°02' E 151°47'0 0.0
2017-Dec-07 18:29S 33°02' E 151°47'0 0.2
2017-Dec-07 17:59S 33°02' E 151°47'0 0.0
2017-Dec-07 17:29S 33°02' E 151°47'0 0.0
2017-Dec-07 16:59S 33°02' E 151°47'0 0.0
2017-Dec-07 16:29S 33°02' E 151°47'0 0.0
2017-Dec-07 15:59S 33°02' E 151°47'0 0.0
2017-Dec-07 14:56S 33°02' E 151°47'0 0.0
2017-Dec-07 14:29S 33°02' E 151°47'0 0.0
2017-Dec-07 13:59S 33°02' E 151°47'0 0.0
2017-Dec-07 13:29S 33°02' E 151°47'0 0.0
2017-Dec-07 12:05S 33°02' E 151°47'0 0.1
2017-Dec-07 11:47S 33°02' E 151°47'0 0.1
2017-Dec-07 11:29S 33°02' E 151°47'0 0.0
2017-Dec-07 10:59S 33°02' E 151°47'0 0.1
2017-Dec-07 10:29S 33°02' E 151°47'0 0.1
2017-Dec-07 09:59S 33°02' E 151°47'0 0.1
2017-Dec-07 09:29S 33°02' E 151°47'0 0.1
2017-Dec-07 08:56S 33°02' E 151°47'0 0.0
2017-Dec-07 08:29S 33°02' E 151°47'0 0.0
2017-Dec-07 07:47S 33°02' E 151°47'0 0.0
2017-Dec-07 07:23S 33°02' E 151°47'0 0.1
2017-Dec-07 06:59S 33°02' E 151°47'0 0.1
2017-Dec-07 06:29S 33°02' E 151°47'0 0.1
2017-Dec-07 05:59S 33°02' E 151°47'0 0.1
2017-Dec-07 05:29S 33°02' E 151°47'0 0.2
2017-Dec-07 04:59S 33°02' E 151°47'0 0.0
2017-Dec-07 04:20S 33°02' E 151°47'0 0.0
2017-Dec-07 03:59S 33°02' E 151°47'0 0.1
2017-Dec-07 03:29S 33°02' E 151°47'0 0.1
2017-Dec-07 02:59S 33°02' E 151°47'0 0.0
2017-Dec-07 02:29S 33°02' E 151°47'0 0.2
2017-Dec-07 01:59S 33°02' E 151°47'0 0.1
2017-Dec-07 01:30S 33°02' E 151°47'0 0.1
2017-Dec-07 00:53S 33°02' E 151°47'0 0.1
2017-Dec-06 23:44S 33°02' E 151°47'0 0.0
2017-Dec-06 23:29S 33°02' E 151°47'0 0.2
2017-Dec-06 22:50S 33°02' E 151°47'0 0.1
2017-Dec-06 22:29S 33°02' E 151°47'0 0.0
2017-Dec-06 21:59S 33°02' E 151°47'0 0.1
2017-Dec-06 20:59S 33°02' E 151°47'  
2017-Dec-04 10:23S 33°02' E 151°47'0 0.0
2017-Dec-04 09:02S 33°02' E 151°47'0 0.1
2017-Dec-04 08:56S 33°02' E 151°47'0 0.0
2017-Dec-04 08:29S 33°02' E 151°47'0 0.0
2017-Dec-04 07:59S 33°02' E 151°47'0 0.1
2017-Dec-04 07:17S 33°02' E 151°47'0 0.1
2017-Dec-04 06:47S 33°02' E 151°47'0 0.0
2017-Dec-04 06:23S 33°02' E 151°47'0 0.0
2017-Dec-04 05:56S 33°02' E 151°47'0 0.0
2017-Dec-04 05:23S 33°02' E 151°47'0 0.0
2017-Dec-04 04:59S 33°02' E 151°47'0 0.1
2017-Dec-04 04:26S 33°02' E 151°47'0 0.1
2017-Dec-04 03:53S 33°02' E 151°47'0 0.0
2017-Dec-04 03:20S 33°02' E 151°47'0 0.0
2017-Dec-04 02:59S 33°02' E 151°47'0 0.0
2017-Dec-04 02:29S 33°02' E 151°47'0 0.0
2017-Dec-04 01:59S 33°02' E 151°47'0 0.1
2017-Dec-04 01:11S 33°02' E 151°47'0 0.1
2017-Dec-04 00:35S 33°02' E 151°47'0 0.0
2017-Dec-03 23:47S 33°02' E 151°47'0 0.1
2017-Dec-03 23:23S 33°02' E 151°47'0 0.0
2017-Dec-03 21:35S 33°02' E 151°47'0 0.0
2017-Dec-03 21:26S 33°02' E 151°47'0 0.0
2017-Dec-03 20:23S 33°02' E 151°47'0 0.0
2017-Dec-03 19:53S 33°02' E 151°47'0 0.0
2017-Dec-03 19:29S 33°02' E 151°47'0 0.0
2017-Dec-03 18:59S 33°02' E 151°47'0 0.1
2017-Dec-03 18:14S 33°02' E 151°47'0 0.0
2017-Dec-03 17:59S 33°02' E 151°47'0 0.0
2017-Dec-03 17:29S 33°02' E 151°47'0 0.1
2017-Dec-03 16:59S 33°02' E 151°47'0 0.0
2017-Dec-03 16:11S 33°02' E 151°47'0 0.0
2017-Dec-03 15:59S 33°02' E 151°47'0 0.1
2017-Dec-03 15:26S 33°02' E 151°47'0 0.0
2017-Dec-03 14:14S 33°02' E 151°47'0 0.4
2017-Dec-03 13:56S 33°02' E 151°47'0 0.2
2017-Dec-03 13:29S 33°02' E 151°47'0 0.1
2017-Dec-03 12:59S 33°02' E 151°47'0 0.0
2017-Dec-03 12:29S 33°02' E 151°47'0 0.0
2017-Dec-03 11:59S 33°02' E 151°47'0 0.0
2017-Dec-03 10:59S 33°02' E 151°47'0 0.0
2017-Dec-03 08:44S 33°02' E 151°47'0 0.1
2017-Dec-03 08:29S 33°02' E 151°47'0 0.1
2017-Dec-03 07:56S 33°02' E 151°47'0 0.0
2017-Dec-03 07:26S 33°02' E 151°47'0 0.0
2017-Dec-03 06:05S 33°02' E 151°47'0 0.0
2017-Dec-03 05:56S 33°02' E 151°47'0 0.1
2017-Dec-03 05:23S 33°02' E 151°47'0 0.0
2017-Dec-03 04:53S 33°02' E 151°47'0 0.1
2017-Dec-03 04:29S 33°02' E 151°47'0 0.0
2017-Dec-03 03:56S 33°02' E 151°47'0 0.0
2017-Dec-03 03:17S 33°02' E 151°47'0 0.0
2017-Dec-03 02:59S 33°02' E 151°47'0 0.0
2017-Dec-03 02:20S 33°02' E 151°47'0 0.0
2017-Dec-03 01:50S 33°02' E 151°47'0 0.1
2017-Dec-03 01:17S 33°02' E 151°47'0 0.0
2017-Dec-03 00:59S 33°02' E 151°47'0 0.1
2017-Dec-03 00:29S 33°02' E 151°47'0 0.0
2017-Dec-02 23:35S 33°02' E 151°47'0 0.0
2017-Dec-02 23:20S 33°02' E 151°47'0 0.0
2017-Dec-02 22:59S 33°02' E 151°47'0 0.0
2017-Dec-02 22:29S 33°02' E 151°47'0 0.0
2017-Dec-02 21:59S 33°02' E 151°47'0 0.0
2017-Dec-02 21:14S 33°02' E 151°47'0 0.0
2017-Dec-02 20:53S 33°02' E 151°47'0 0.0
2017-Dec-02 20:29S 33°02' E 151°47'0 0.0
2017-Dec-02 19:56S 33°02' E 151°47'0 0.0
2017-Dec-02 19:29S 33°02' E 151°47'0 0.1
2017-Dec-02 18:59S 33°02' E 151°47'0 0.1
2017-Dec-02 18:26S 33°02' E 151°47'0 0.0
2017-Dec-02 17:56S 33°02' E 151°47'0 0.1
2017-Dec-02 17:29S 33°02' E 151°47'0 0.0
2017-Dec-02 16:59S 33°02' E 151°47'0 0.0
2017-Dec-02 16:20S 33°02' E 151°47'0 0.0
2017-Dec-02 15:59S 33°02' E 151°47'0 0.7
2017-Dec-02 15:30S 33°02' E 151°47'3 5.1
2017-Dec-02 15:00S 33°01' E 151°50'510.4
2017-Dec-02 14:30S 32°59' E 151°56'713.3
2017-Dec-02 14:00S 32°55' E 152°03'713.2
2017-Dec-02 13:30S 32°52' E 152°10'713.0
2017-Dec-02 13:00S 32°49' E 152°16'612.9
2017-Dec-02 12:30S 32°44' E 152°22'713.2
2017-Dec-02 12:00S 32°40' E 152°27'713.0
2017-Dec-02 11:30S 32°35' E 152°33'713.6
2017-Dec-02 11:00S 32°30' E 152°38'23713.4
2017-Dec-01 17:18S 28°43' E 153°58'513.8
2017-Dec-01 16:58S 28°39' E 153°55'713.7
2017-Dec-01 16:30S 28°34' E 153°50'713.8
2017-Dec-01 16:00S 28°29' E 153°45'712.8
2017-Dec-01 15:28S 28°22' E 153°46'714.0
2017-Dec-01 14:59S 28°18' E 153°52'713.9
2017-Dec-01 14:29S 28°13' E 153°58'510.8
2017-Dec-01 14:01S 28°08' E 153°58'713.6
2017-Dec-01 13:30S 28°03' E 153°53'613.0
2017-Dec-01 13:00S 27°58' E 153°48'714.0
2017-Dec-01 12:29S 27°50' E 153°49'714.1
2017-Dec-01 12:00S 27°44' E 153°49'714.5
2017-Dec-01 11:30S 27°36' E 153°49'714.6
2017-Dec-01 11:00S 27°29' E 153°49'2514.5
2017-Dec-01 09:18S 27°04' E 153°51'  
Track history (hours):
 
Tides and Currents Weather Stations Pressure Air Temp Water Temp Dewpoint Dewpoint Depression Visibility Wind Speed Wind Dir Waves Ship Positions

Corona Royal

Last reported at 2017-Dec-10 18:14 UTC. Time now 2017-Dec-12 16:15 UTC.
Position S 27°34' E 153°49'.

Length 230 m; draft 12.8 m.

Type: Cargo ship. MMSI: 357338000.

Date/timePositionNaut miles runAvg speedWind from/ knotsBaromVisibWave heightAir tempDewpointWater temp
2017-Dec-10 18:14S 27°34' E 153°49'311.3
2017-Dec-10 17:59S 27°37' E 153°49'511.3
2017-Dec-10 17:30S 27°42' E 153°49'611.2
2017-Dec-10 17:00S 27°48' E 153°49'611.1
2017-Dec-10 16:30S 27°53' E 153°49'711.0
2017-Dec-10 15:53S 28°00' E 153°49'24611.2
2017-Dec-09 18:02S 32°01' E 152°53'2712.3
2017-Dec-09 15:50S 32°26' E 152°40'411.4
2017-Dec-09 15:27S 32°30' E 152°38'511.1
2017-Dec-09 15:00S 32°33' E 152°34'610.9
2017-Dec-09 14:30S 32°37' E 152°30'611.5
2017-Dec-09 14:00S 32°41' E 152°25'612.4
2017-Dec-09 13:30S 32°46' E 152°20'612.4
2017-Dec-09 12:59S 32°50' E 152°14'612.4
2017-Dec-09 12:30S 32°53' E 152°08'612.4
2017-Dec-09 12:00S 32°56' E 152°01'611.1
2017-Dec-09 11:30S 32°56' E 151°55'5 9.0
2017-Dec-09 11:00S 32°56' E 151°49'2 4.8
2017-Dec-09 10:30S 32°55' E 151°47'2 4.1
2017-Dec-09 10:00S 32°53' E 151°46'1 0.0
2017-Dec-08 19:39S 32°53' E 151°45'0 0.0
2017-Dec-08 19:27S 32°53' E 151°45'0 0.0
2017-Dec-08 19:00S 32°53' E 151°45'0 0.0
2017-Dec-08 13:48S 32°53' E 151°45'0 0.0
2017-Dec-08 12:33S 32°53' E 151°45'0 0.0
2017-Dec-08 12:27S 32°53' E 151°45'0 0.0
2017-Dec-08 07:12S 32°53' E 151°45'0 0.0
2017-Dec-08 04:24S 32°53' E 151°45'0 0.0
2017-Dec-08 03:24S 32°53' E 151°45'0 0.0
2017-Dec-08 02:09S 32°53' E 151°45'0 0.0
2017-Dec-08 01:42S 32°53' E 151°45'0 0.0
2017-Dec-08 01:24S 32°53' E 151°45'0 0.0
2017-Dec-08 01:00S 32°53' E 151°45'1 2.2
2017-Dec-08 00:30S 32°53' E 151°46'2 4.1
2017-Dec-08 00:00S 32°55' E 151°47'4 8.3
2017-Dec-07 23:30S 32°57' E 151°52'3 5.6
2017-Dec-07 23:01S 32°60' E 151°51'4 7.6
2017-Dec-07 22:30S 33°02' E 151°47'0 0.5
2017-Dec-07 21:56S 33°02' E 151°47'0 0.0
2017-Dec-07 21:29S 33°02' E 151°47'0 0.0
2017-Dec-07 20:59S 33°02' E 151°47'0 0.0
2017-Dec-07 20:29S 33°02' E 151°47'0 0.0
2017-Dec-07 19:56S 33°02' E 151°47'0 0.0
2017-Dec-07 19:23S 33°02' E 151°47'0 0.1
2017-Dec-07 18:59S 33°02' E 151°47'0 0.0
2017-Dec-07 18:29S 33°02' E 151°47'0 0.2
2017-Dec-07 17:59S 33°02' E 151°47'0 0.0
2017-Dec-07 17:29S 33°02' E 151°47'0 0.0
2017-Dec-07 16:59S 33°02' E 151°47'0 0.0
2017-Dec-07 16:29S 33°02' E 151°47'0 0.0
2017-Dec-07 15:59S 33°02' E 151°47'0 0.0
2017-Dec-07 14:56S 33°02' E 151°47'0 0.0
2017-Dec-07 14:29S 33°02' E 151°47'0 0.0
2017-Dec-07 13:59S 33°02' E 151°47'0 0.0
2017-Dec-07 13:29S 33°02' E 151°47'0 0.0
2017-Dec-07 12:05S 33°02' E 151°47'0 0.1
2017-Dec-07 11:47S 33°02' E 151°47'0 0.1
2017-Dec-07 11:29S 33°02' E 151°47'0 0.0
2017-Dec-07 10:59S 33°02' E 151°47'0 0.1
2017-Dec-07 10:29S 33°02' E 151°47'0 0.1
2017-Dec-07 09:59S 33°02' E 151°47'0 0.1
2017-Dec-07 09:29S 33°02' E 151°47'0 0.1
2017-Dec-07 08:56S 33°02' E 151°47'0 0.0
2017-Dec-07 08:29S 33°02' E 151°47'0 0.0
2017-Dec-07 07:47S 33°02' E 151°47'0 0.0
2017-Dec-07 07:23S 33°02' E 151°47'0 0.1
2017-Dec-07 06:59S 33°02' E 151°47'0 0.1
2017-Dec-07 06:29S 33°02' E 151°47'0 0.1
2017-Dec-07 05:59S 33°02' E 151°47'0 0.1
2017-Dec-07 05:29S 33°02' E 151°47'0 0.2
2017-Dec-07 04:59S 33°02' E 151°47'0 0.0
2017-Dec-07 04:20S 33°02' E 151°47'0 0.0
2017-Dec-07 03:59S 33°02' E 151°47'0 0.1
2017-Dec-07 03:29S 33°02' E 151°47'0 0.1
2017-Dec-07 02:59S 33°02' E 151°47'0 0.0
2017-Dec-07 02:29S 33°02' E 151°47'0 0.2
2017-Dec-07 01:59S 33°02' E 151°47'0 0.1
2017-Dec-07 01:30S 33°02' E 151°47'0 0.1
2017-Dec-07 00:53S 33°02' E 151°47'0 0.1
2017-Dec-06 23:44S 33°02' E 151°47'0 0.0
2017-Dec-06 23:29S 33°02' E 151°47'0 0.2
2017-Dec-06 22:50S 33°02' E 151°47'0 0.1
2017-Dec-06 22:29S 33°02' E 151°47'0 0.0
2017-Dec-06 21:59S 33°02' E 151°47'0 0.1
2017-Dec-06 20:59S 33°02' E 151°47'  
2017-Dec-04 10:23S 33°02' E 151°47'0 0.0
2017-Dec-04 09:02S 33°02' E 151°47'0 0.1
2017-Dec-04 08:56S 33°02' E 151°47'0 0.0
2017-Dec-04 08:29S 33°02' E 151°47'0 0.0
2017-Dec-04 07:59S 33°02' E 151°47'0 0.1
2017-Dec-04 07:17S 33°02' E 151°47'0 0.1
2017-Dec-04 06:47S 33°02' E 151°47'0 0.0
2017-Dec-04 06:23S 33°02' E 151°47'0 0.0
2017-Dec-04 05:56S 33°02' E 151°47'0 0.0
2017-Dec-04 05:23S 33°02' E 151°47'0 0.0
2017-Dec-04 04:59S 33°02' E 151°47'0 0.1
2017-Dec-04 04:26S 33°02' E 151°47'0 0.1
2017-Dec-04 03:53S 33°02' E 151°47'0 0.0
2017-Dec-04 03:20S 33°02' E 151°47'0 0.0
2017-Dec-04 02:59S 33°02' E 151°47'0 0.0
2017-Dec-04 02:29S 33°02' E 151°47'0 0.0
2017-Dec-04 01:59S 33°02' E 151°47'0 0.1
2017-Dec-04 01:11S 33°02' E 151°47'0 0.1
2017-Dec-04 00:35S 33°02' E 151°47'0 0.0
2017-Dec-03 23:47S 33°02' E 151°47'0 0.1
2017-Dec-03 23:23S 33°02' E 151°47'0 0.0
2017-Dec-03 21:35S 33°02' E 151°47'0 0.0
2017-Dec-03 21:26S 33°02' E 151°47'0 0.0
2017-Dec-03 20:23S 33°02' E 151°47'0 0.0
2017-Dec-03 19:53S 33°02' E 151°47'0 0.0
2017-Dec-03 19:29S 33°02' E 151°47'0 0.0
2017-Dec-03 18:59S 33°02' E 151°47'0 0.1
2017-Dec-03 18:14S 33°02' E 151°47'0 0.0
2017-Dec-03 17:59S 33°02' E 151°47'0 0.0
2017-Dec-03 17:29S 33°02' E 151°47'0 0.1
2017-Dec-03 16:59S 33°02' E 151°47'0 0.0
2017-Dec-03 16:11S 33°02' E 151°47'0 0.0
2017-Dec-03 15:59S 33°02' E 151°47'0 0.1
2017-Dec-03 15:26S 33°02' E 151°47'0 0.0
2017-Dec-03 14:14S 33°02' E 151°47'0 0.4
2017-Dec-03 13:56S 33°02' E 151°47'0 0.2
2017-Dec-03 13:29S 33°02' E 151°47'0 0.1
2017-Dec-03 12:59S 33°02' E 151°47'0 0.0
2017-Dec-03 12:29S 33°02' E 151°47'0 0.0
2017-Dec-03 11:59S 33°02' E 151°47'0 0.0
2017-Dec-03 10:59S 33°02' E 151°47'0 0.0
2017-Dec-03 08:44S 33°02' E 151°47'0 0.1
2017-Dec-03 08:29S 33°02' E 151°47'0 0.1
2017-Dec-03 07:56S 33°02' E 151°47'0 0.0
2017-Dec-03 07:26S 33°02' E 151°47'0 0.0
2017-Dec-03 06:05S 33°02' E 151°47'0 0.0
2017-Dec-03 05:56S 33°02' E 151°47'0 0.1
2017-Dec-03 05:23S 33°02' E 151°47'0 0.0
2017-Dec-03 04:53S 33°02' E 151°47'0 0.1
2017-Dec-03 04:29S 33°02' E 151°47'0 0.0
2017-Dec-03 03:56S 33°02' E 151°47'0 0.0
2017-Dec-03 03:17S 33°02' E 151°47'0 0.0
2017-Dec-03 02:59S 33°02' E 151°47'0 0.0
2017-Dec-03 02:20S 33°02' E 151°47'0 0.0
2017-Dec-03 01:50S 33°02' E 151°47'0 0.1
2017-Dec-03 01:17S 33°02' E 151°47'0 0.0
2017-Dec-03 00:59S 33°02' E 151°47'0 0.1
2017-Dec-03 00:29S 33°02' E 151°47'0 0.0
2017-Dec-02 23:35S 33°02' E 151°47'0 0.0
2017-Dec-02 23:20S 33°02' E 151°47'0 0.0
2017-Dec-02 22:59S 33°02' E 151°47'0 0.0
2017-Dec-02 22:29S 33°02' E 151°47'0 0.0
2017-Dec-02 21:59S 33°02' E 151°47'0 0.0
2017-Dec-02 21:14S 33°02' E 151°47'0 0.0
2017-Dec-02 20:53S 33°02' E 151°47'0 0.0
2017-Dec-02 20:29S 33°02' E 151°47'0 0.0
2017-Dec-02 19:56S 33°02' E 151°47'0 0.0
2017-Dec-02 19:29S 33°02' E 151°47'0 0.1
2017-Dec-02 18:59S 33°02' E 151°47'0 0.1
2017-Dec-02 18:26S 33°02' E 151°47'0 0.0
2017-Dec-02 17:56S 33°02' E 151°47'0 0.1
2017-Dec-02 17:29S 33°02' E 151°47'0 0.0
2017-Dec-02 16:59S 33°02' E 151°47'0 0.0
2017-Dec-02 16:20S 33°02' E 151°47'0 0.0
2017-Dec-02 15:59S 33°02' E 151°47'0 0.7
2017-Dec-02 15:30S 33°02' E 151°47'3 5.1
2017-Dec-02 15:00S 33°01' E 151°50'510.4
2017-Dec-02 14:30S 32°59' E 151°56'713.3
2017-Dec-02 14:00S 32°55' E 152°03'713.2
2017-Dec-02 13:30S 32°52' E 152°10'713.0
2017-Dec-02 13:00S 32°49' E 152°16'612.9
2017-Dec-02 12:30S 32°44' E 152°22'713.2
2017-Dec-02 12:00S 32°40' E 152°27'713.0
2017-Dec-02 11:30S 32°35' E 152°33'713.6
2017-Dec-02 11:00S 32°30' E 152°38'23713.4
2017-Dec-01 17:18S 28°43' E 153°58'513.8
2017-Dec-01 16:58S 28°39' E 153°55'713.7
2017-Dec-01 16:30S 28°34' E 153°50'713.8
2017-Dec-01 16:00S 28°29' E 153°45'712.8
2017-Dec-01 15:28S 28°22' E 153°46'714.0
2017-Dec-01 14:59S 28°18' E 153°52'713.9
2017-Dec-01 14:29S 28°13' E 153°58'510.8
2017-Dec-01 14:01S 28°08' E 153°58'713.6
2017-Dec-01 13:30S 28°03' E 153°53'613.0
2017-Dec-01 13:00S 27°58' E 153°48'714.0
2017-Dec-01 12:29S 27°50' E 153°49'714.1
2017-Dec-01 12:00S 27°44' E 153°49'714.5
2017-Dec-01 11:30S 27°36' E 153°49'714.6
2017-Dec-01 11:00S 27°29' E 153°49'2514.5
2017-Dec-01 09:18S 27°04' E 153°51'  

Dump ship's entire track history